sensor_id;sensor_type;location;lat;lon;timestamp;temperature;humidity
52895;DHT22;38759;53.396;6.722;2023-12-07T00:02:12;2.50;99.90
52895;DHT22;38759;53.396;6.722;2023-12-07T00:04:38;2.40;99.90
52895;DHT22;38759;53.396;6.722;2023-12-07T00:07:04;2.40;99.90
52895;DHT22;38759;53.396;6.722;2023-12-07T00:09:29;2.40;99.90
52895;DHT22;38759;53.396;6.722;2023-12-07T00:11:55;2.40;99.90
52895;DHT22;38759;53.396;6.722;2023-12-07T00:14:21;2.50;99.90
52895;DHT22;38759;53.396;6.722;2023-12-07T00:16:46;2.40;99.90
52895;DHT22;38759;53.396;6.722;2023-12-07T00:19:12;2.40;99.90
52895;DHT22;38759;53.396;6.722;2023-12-07T00:21:38;2.30;99.90
52895;DHT22;38759;53.396;6.722;2023-12-07T00:24:04;2.60;99.90
52895;DHT22;38759;53.396;6.722;2023-12-07T00:26:29;2.30;99.90
52895;DHT22;38759;53.396;6.722;2023-12-07T00:28:55;2.30;99.90
52895;DHT22;38759;53.396;6.722;2023-12-07T00:31:21;2.20;99.90
52895;DHT22;38759;53.396;6.722;2023-12-07T00:33:46;2.20;99.90
52895;DHT22;38759;53.396;6.722;2023-12-07T00:36:12;2.20;99.90
52895;DHT22;38759;53.396;6.722;2023-12-07T00:38:38;2.20;99.90
52895;DHT22;38759;53.396;6.722;2023-12-07T00:41:04;2.20;99.90
52895;DHT22;38759;53.396;6.722;2023-12-07T00:43:29;2.20;99.90
52895;DHT22;38759;53.396;6.722;2023-12-07T00:45:55;2.20;99.90
52895;DHT22;38759;53.396;6.722;2023-12-07T00:48:20;2.20;99.90
52895;DHT22;38759;53.396;6.722;2023-12-07T00:50:46;2.20;99.90
52895;DHT22;38759;53.396;6.722;2023-12-07T00:53:12;2.30;99.90
52895;DHT22;38759;53.396;6.722;2023-12-07T00:55:38;2.30;99.90
52895;DHT22;38759;53.396;6.722;2023-12-07T00:58:05;2.40;99.90
52895;DHT22;38759;53.396;6.722;2023-12-07T01:00:31;2.40;99.90
52895;DHT22;38759;53.396;6.722;2023-12-07T01:02:56;2.40;99.90
52895;DHT22;38759;53.396;6.722;2023-12-07T01:05:22;2.40;99.90
52895;DHT22;38759;53.396;6.722;2023-12-07T01:07:48;2.50;99.90
52895;DHT22;38759;53.396;6.722;2023-12-07T01:10:13;2.50;99.90
52895;DHT22;38759;53.396;6.722;2023-12-07T01:12:39;2.50;99.90
52895;DHT22;38759;53.396;6.722;2023-12-07T01:15:05;2.50;99.90
52895;DHT22;38759;53.396;6.722;2023-12-07T01:17:31;2.50;99.90
52895;DHT22;38759;53.396;6.722;2023-12-07T01:19:57;2.60;99.90
52895;DHT22;38759;53.396;6.722;2023-12-07T01:22:23;2.50;99.90
52895;DHT22;38759;53.396;6.722;2023-12-07T01:24:48;2.70;99.90
52895;DHT22;38759;53.396;6.722;2023-12-07T01:27:14;2.50;99.90
52895;DHT22;38759;53.396;6.722;2023-12-07T01:29:39;2.50;99.90
52895;DHT22;38759;53.396;6.722;2023-12-07T01:32:05;2.50;99.90
52895;DHT22;38759;53.396;6.722;2023-12-07T01:34:31;2.40;99.90
52895;DHT22;38759;53.396;6.722;2023-12-07T01:36:58;2.40;99.90
52895;DHT22;38759;53.396;6.722;2023-12-07T01:39:23;2.50;99.90
52895;DHT22;38759;53.396;6.722;2023-12-07T01:41:50;2.40;99.90
52895;DHT22;38759;53.396;6.722;2023-12-07T01:44:17;2.40;99.90
52895;DHT22;38759;53.396;6.722;2023-12-07T01:46:42;2.40;99.90
52895;DHT22;38759;53.396;6.722;2023-12-07T01:49:08;2.40;99.90
52895;DHT22;38759;53.396;6.722;2023-12-07T01:51:35;2.40;99.90
52895;DHT22;38759;53.396;6.722;2023-12-07T01:54:01;2.30;99.90
52895;DHT22;38759;53.396;6.722;2023-12-07T01:56:27;2.30;99.90
52895;DHT22;38759;53.396;6.722;2023-12-07T01:58:53;2.30;99.90
52895;DHT22;38759;53.396;6.722;2023-12-07T02:01:19;2.30;99.90
52895;DHT22;38759;53.396;6.722;2023-12-07T02:03:44;2.30;99.90
52895;DHT22;38759;53.396;6.722;2023-12-07T02:06:10;2.30;99.90
52895;DHT22;38759;53.396;6.722;2023-12-07T02:08:36;2.50;99.90
52895;DHT22;38759;53.396;6.722;2023-12-07T02:11:09;2.40;99.90
52895;DHT22;38759;53.396;6.722;2023-12-07T02:13:39;2.40;99.90
52895;DHT22;38759;53.396;6.722;2023-12-07T02:16:21;2.40;99.90
52895;DHT22;38759;53.396;6.722;2023-12-07T02:21:47;2.40;99.90
52895;DHT22;38759;53.396;6.722;2023-12-07T02:24:21;2.50;99.90
52895;DHT22;38759;53.396;6.722;2023-12-07T02:26:48;2.40;99.90
52895;DHT22;38759;53.396;6.722;2023-12-07T02:29:13;2.40;99.90
52895;DHT22;38759;53.396;6.722;2023-12-07T02:31:39;2.40;99.90
52895;DHT22;38759;53.396;6.722;2023-12-07T02:34:05;2.50;99.90
52895;DHT22;38759;53.396;6.722;2023-12-07T02:36:32;2.30;99.90
52895;DHT22;38759;53.396;6.722;2023-12-07T02:39:00;2.40;99.90
52895;DHT22;38759;53.396;6.722;2023-12-07T02:41:30;2.30;99.90
52895;DHT22;38759;53.396;6.722;2023-12-07T02:43:57;2.30;99.90
52895;DHT22;38759;53.396;6.722;2023-12-07T02:46:24;2.30;99.90
52895;DHT22;38759;53.396;6.722;2023-12-07T02:48:49;2.30;99.90
52895;DHT22;38759;53.396;6.722;2023-12-07T02:51:15;2.30;99.90
52895;DHT22;38759;53.396;6.722;2023-12-07T02:53:41;2.30;99.90
52895;DHT22;38759;53.396;6.722;2023-12-07T02:56:10;2.50;99.90
52895;DHT22;38759;53.396;6.722;2023-12-07T02:58:35;2.30;99.90
52895;DHT22;38759;53.396;6.722;2023-12-07T03:01:01;2.40;99.90
52895;DHT22;38759;53.396;6.722;2023-12-07T03:03:27;2.30;99.90
52895;DHT22;38759;53.396;6.722;2023-12-07T03:05:52;2.40;99.90
52895;DHT22;38759;53.396;6.722;2023-12-07T03:08:18;2.40;99.90
52895;DHT22;38759;53.396;6.722;2023-12-07T03:10:43;2.40;99.90
52895;DHT22;38759;53.396;6.722;2023-12-07T03:13:09;2.40;99.90
52895;DHT22;38759;53.396;6.722;2023-12-07T03:15:35;2.30;99.90
52895;DHT22;38759;53.396;6.722;2023-12-07T03:18:00;2.30;99.90
52895;DHT22;38759;53.396;6.722;2023-12-07T03:20:26;2.30;99.90
52895;DHT22;38759;53.396;6.722;2023-12-07T03:22:52;2.20;99.90
52895;DHT22;38759;53.396;6.722;2023-12-07T03:25:18;2.20;99.90
52895;DHT22;38759;53.396;6.722;2023-12-07T03:27:43;2.20;99.90
52895;DHT22;38759;53.396;6.722;2023-12-07T03:30:09;2.20;99.90
52895;DHT22;38759;53.396;6.722;2023-12-07T03:32:35;2.20;99.90
52895;DHT22;38759;53.396;6.722;2023-12-07T03:35:01;2.20;99.90
52895;DHT22;38759;53.396;6.722;2023-12-07T03:37:26;2.20;99.90
52895;DHT22;38759;53.396;6.722;2023-12-07T03:39:52;2.10;99.90
52895;DHT22;38759;53.396;6.722;2023-12-07T03:42:17;2.10;99.90
52895;DHT22;38759;53.396;6.722;2023-12-07T03:44:43;2.30;99.90
52895;DHT22;38759;53.396;6.722;2023-12-07T03:47:09;2.20;99.90
52895;DHT22;38759;53.396;6.722;2023-12-07T03:49:35;2.10;99.90
52895;DHT22;38759;53.396;6.722;2023-12-07T03:52:01;2.10;99.90
52895;DHT22;38759;53.396;6.722;2023-12-07T03:54:27;2.10;99.90
52895;DHT22;38759;53.396;6.722;2023-12-07T03:56:53;2.10;99.90
52895;DHT22;38759;53.396;6.722;2023-12-07T03:59:18;2.10;99.90
52895;DHT22;38759;53.396;6.722;2023-12-07T04:01:44;2.10;99.90
52895;DHT22;38759;53.396;6.722;2023-12-07T04:04:10;2.00;99.90
52895;DHT22;38759;53.396;6.722;2023-12-07T04:06:35;2.00;99.90
52895;DHT22;38759;53.396;6.722;2023-12-07T04:09:01;2.00;99.90
52895;DHT22;38759;53.396;6.722;2023-12-07T04:11:28;2.10;99.90
52895;DHT22;38759;53.396;6.722;2023-12-07T04:13:53;2.00;99.90
52895;DHT22;38759;53.396;6.722;2023-12-07T04:16:19;2.10;99.90
52895;DHT22;38759;53.396;6.722;2023-12-07T04:18:45;2.00;99.90
52895;DHT22;38759;53.396;6.722;2023-12-07T04:21:10;2.00;99.90
52895;DHT22;38759;53.396;6.722;2023-12-07T04:23:36;2.00;99.90
52895;DHT22;38759;53.396;6.722;2023-12-07T04:26:01;1.90;99.90
52895;DHT22;38759;53.396;6.722;2023-12-07T04:28:27;1.90;99.90
52895;DHT22;38759;53.396;6.722;2023-12-07T04:30:53;1.90;99.90
52895;DHT22;38759;53.396;6.722;2023-12-07T04:33:19;1.90;99.90
52895;DHT22;38759;53.396;6.722;2023-12-07T04:35:44;1.90;99.90
52895;DHT22;38759;53.396;6.722;2023-12-07T04:38:10;1.90;99.90
52895;DHT22;38759;53.396;6.722;2023-12-07T04:40:36;1.90;99.90
52895;DHT22;38759;53.396;6.722;2023-12-07T04:43:01;1.90;99.90
52895;DHT22;38759;53.396;6.722;2023-12-07T04:45:27;1.90;99.90
52895;DHT22;38759;53.396;6.722;2023-12-07T04:47:52;1.90;99.90
52895;DHT22;38759;53.396;6.722;2023-12-07T04:50:18;1.90;99.90
52895;DHT22;38759;53.396;6.722;2023-12-07T04:52:44;1.90;99.90
52895;DHT22;38759;53.396;6.722;2023-12-07T04:55:10;1.90;99.90
52895;DHT22;38759;53.396;6.722;2023-12-07T04:57:35;1.90;99.90
52895;DHT22;38759;53.396;6.722;2023-12-07T05:00:03;1.90;99.90
52895;DHT22;38759;53.396;6.722;2023-12-07T05:02:32;1.90;99.90
52895;DHT22;38759;53.396;6.722;2023-12-07T05:04:57;1.90;99.90
52895;DHT22;38759;53.396;6.722;2023-12-07T05:07:23;1.90;99.90
52895;DHT22;38759;53.396;6.722;2023-12-07T05:09:49;1.90;99.90
52895;DHT22;38759;53.396;6.722;2023-12-07T05:12:16;1.90;99.90
52895;DHT22;38759;53.396;6.722;2023-12-07T05:14:42;1.80;99.90
52895;DHT22;38759;53.396;6.722;2023-12-07T05:17:08;1.80;99.90
52895;DHT22;38759;53.396;6.722;2023-12-07T05:19:34;1.80;99.90
52895;DHT22;38759;53.396;6.722;2023-12-07T05:21:59;1.90;99.90
52895;DHT22;38759;53.396;6.722;2023-12-07T05:24:25;1.80;99.90
52895;DHT22;38759;53.396;6.722;2023-12-07T05:26:51;1.80;99.90
52895;DHT22;38759;53.396;6.722;2023-12-07T05:29:17;1.80;99.90
52895;DHT22;38759;53.396;6.722;2023-12-07T05:31:43;1.80;99.90
52895;DHT22;38759;53.396;6.722;2023-12-07T05:34:09;1.80;99.90
52895;DHT22;38759;53.396;6.722;2023-12-07T05:36:34;1.80;99.90
52895;DHT22;38759;53.396;6.722;2023-12-07T05:39:00;1.80;99.90
52895;DHT22;38759;53.396;6.722;2023-12-07T05:41:26;1.80;99.90
52895;DHT22;38759;53.396;6.722;2023-12-07T05:43:52;1.80;99.90
52895;DHT22;38759;53.396;6.722;2023-12-07T05:46:21;1.80;99.90
52895;DHT22;38759;53.396;6.722;2023-12-07T05:48:47;1.80;99.90
52895;DHT22;38759;53.396;6.722;2023-12-07T05:51:16;1.80;99.90
52895;DHT22;38759;53.396;6.722;2023-12-07T05:53:43;1.80;99.90
52895;DHT22;38759;53.396;6.722;2023-12-07T05:56:09;1.80;99.90
52895;DHT22;38759;53.396;6.722;2023-12-07T05:58:35;1.80;99.90
52895;DHT22;38759;53.396;6.722;2023-12-07T06:01:01;1.80;99.90
52895;DHT22;38759;53.396;6.722;2023-12-07T06:03:28;1.80;99.90
52895;DHT22;38759;53.396;6.722;2023-12-07T06:05:54;1.70;99.90
52895;DHT22;38759;53.396;6.722;2023-12-07T06:08:21;1.70;99.90
52895;DHT22;38759;53.396;6.722;2023-12-07T06:10:47;1.70;99.90
52895;DHT22;38759;53.396;6.722;2023-12-07T06:13:13;1.70;99.90
52895;DHT22;38759;53.396;6.722;2023-12-07T06:15:40;1.70;99.90
52895;DHT22;38759;53.396;6.722;2023-12-07T06:18:06;1.60;99.90
52895;DHT22;38759;53.396;6.722;2023-12-07T06:20:32;1.60;99.90
52895;DHT22;38759;53.396;6.722;2023-12-07T06:22:58;1.60;99.90
52895;DHT22;38759;53.396;6.722;2023-12-07T06:25:24;1.60;99.90
52895;DHT22;38759;53.396;6.722;2023-12-07T06:27:50;1.70;99.90
52895;DHT22;38759;53.396;6.722;2023-12-07T06:30:16;1.50;99.90
52895;DHT22;38759;53.396;6.722;2023-12-07T06:32:42;1.60;99.90
52895;DHT22;38759;53.396;6.722;2023-12-07T06:35:08;1.60;99.90
52895;DHT22;38759;53.396;6.722;2023-12-07T06:37:34;1.50;99.90
52895;DHT22;38759;53.396;6.722;2023-12-07T06:39:59;1.60;99.90
52895;DHT22;38759;53.396;6.722;2023-12-07T06:42:26;1.60;99.90
52895;DHT22;38759;53.396;6.722;2023-12-07T06:44:51;1.80;99.90
52895;DHT22;38759;53.396;6.722;2023-12-07T06:47:17;1.60;99.90
52895;DHT22;38759;53.396;6.722;2023-12-07T06:49:44;1.60;99.90
52895;DHT22;38759;53.396;6.722;2023-12-07T06:52:11;1.70;99.90
52895;DHT22;38759;53.396;6.722;2023-12-07T06:54:37;1.70;99.90
52895;DHT22;38759;53.396;6.722;2023-12-07T06:57:04;1.70;99.90
52895;DHT22;38759;53.396;6.722;2023-12-07T06:59:32;1.70;99.90
52895;DHT22;38759;53.396;6.722;2023-12-07T07:01:58;1.70;99.90
52895;DHT22;38759;53.396;6.722;2023-12-07T07:04:24;1.80;99.90
52895;DHT22;38759;53.396;6.722;2023-12-07T07:06:49;1.80;99.90
52895;DHT22;38759;53.396;6.722;2023-12-07T07:09:15;1.70;99.90
52895;DHT22;38759;53.396;6.722;2023-12-07T07:11:42;1.80;99.90
52895;DHT22;38759;53.396;6.722;2023-12-07T07:14:13;1.80;99.90
52895;DHT22;38759;53.396;6.722;2023-12-07T07:16:38;1.70;99.90
52895;DHT22;38759;53.396;6.722;2023-12-07T07:19:04;1.80;99.90
52895;DHT22;38759;53.396;6.722;2023-12-07T07:21:30;1.80;99.90
52895;DHT22;38759;53.396;6.722;2023-12-07T07:23:55;1.80;99.90
52895;DHT22;38759;53.396;6.722;2023-12-07T07:26:22;1.80;99.90
52895;DHT22;38759;53.396;6.722;2023-12-07T07:28:47;1.80;99.90
52895;DHT22;38759;53.396;6.722;2023-12-07T07:31:13;1.80;99.90
52895;DHT22;38759;53.396;6.722;2023-12-07T07:33:39;1.80;99.90
52895;DHT22;38759;53.396;6.722;2023-12-07T07:36:04;1.80;99.90
52895;DHT22;38759;53.396;6.722;2023-12-07T07:38:30;1.80;99.90
52895;DHT22;38759;53.396;6.722;2023-12-07T07:40:56;1.80;99.90
52895;DHT22;38759;53.396;6.722;2023-12-07T07:43:21;1.80;99.90
52895;DHT22;38759;53.396;6.722;2023-12-07T07:45:47;1.90;99.90
52895;DHT22;38759;53.396;6.722;2023-12-07T07:48:13;1.80;99.90
52895;DHT22;38759;53.396;6.722;2023-12-07T07:50:39;1.80;99.90
52895;DHT22;38759;53.396;6.722;2023-12-07T07:53:04;1.80;99.90
52895;DHT22;38759;53.396;6.722;2023-12-07T07:55:30;1.80;99.90
52895;DHT22;38759;53.396;6.722;2023-12-07T07:57:56;1.80;99.90
52895;DHT22;38759;53.396;6.722;2023-12-07T08:00:22;1.70;99.90
52895;DHT22;38759;53.396;6.722;2023-12-07T08:02:51;1.70;99.90
52895;DHT22;38759;53.396;6.722;2023-12-07T08:05:17;1.70;99.90
52895;DHT22;38759;53.396;6.722;2023-12-07T08:07:43;1.80;99.90
52895;DHT22;38759;53.396;6.722;2023-12-07T08:10:12;1.70;99.90
52895;DHT22;38759;53.396;6.722;2023-12-07T08:12:39;1.70;99.90
52895;DHT22;38759;53.396;6.722;2023-12-07T08:15:06;1.70;99.90
52895;DHT22;38759;53.396;6.722;2023-12-07T08:17:37;1.80;99.90
52895;DHT22;38759;53.396;6.722;2023-12-07T08:20:05;1.80;99.90
52895;DHT22;38759;53.396;6.722;2023-12-07T08:22:31;1.80;99.90
52895;DHT22;38759;53.396;6.722;2023-12-07T08:24:57;1.80;99.90
52895;DHT22;38759;53.396;6.722;2023-12-07T08:27:22;1.80;99.90
52895;DHT22;38759;53.396;6.722;2023-12-07T08:29:48;1.80;99.90
52895;DHT22;38759;53.396;6.722;2023-12-07T08:32:14;1.80;99.90
52895;DHT22;38759;53.396;6.722;2023-12-07T08:34:41;1.90;99.90
52895;DHT22;38759;53.396;6.722;2023-12-07T08:37:06;1.90;99.90
52895;DHT22;38759;53.396;6.722;2023-12-07T08:39:33;1.90;99.90
52895;DHT22;38759;53.396;6.722;2023-12-07T08:41:58;1.90;99.90
52895;DHT22;38759;53.396;6.722;2023-12-07T08:44:24;1.90;99.90
52895;DHT22;38759;53.396;6.722;2023-12-07T08:46:50;2.00;99.90
52895;DHT22;38759;53.396;6.722;2023-12-07T08:49:15;2.10;99.90
52895;DHT22;38759;53.396;6.722;2023-12-07T08:51:41;2.10;99.90
52895;DHT22;38759;53.396;6.722;2023-12-07T08:54:07;2.00;99.90
52895;DHT22;38759;53.396;6.722;2023-12-07T08:56:32;2.10;99.90
52895;DHT22;38759;53.396;6.722;2023-12-07T08:58:58;2.10;99.90
52895;DHT22;38759;53.396;6.722;2023-12-07T09:01:24;2.10;99.90
52895;DHT22;38759;53.396;6.722;2023-12-07T09:03:49;2.20;99.90
52895;DHT22;38759;53.396;6.722;2023-12-07T09:06:15;2.20;99.90
52895;DHT22;38759;53.396;6.722;2023-12-07T09:08:41;2.10;99.90
52895;DHT22;38759;53.396;6.722;2023-12-07T09:11:06;2.10;99.90
52895;DHT22;38759;53.396;6.722;2023-12-07T09:13:32;2.10;99.90
52895;DHT22;38759;53.396;6.722;2023-12-07T09:15:57;2.20;99.90
52895;DHT22;38759;53.396;6.722;2023-12-07T09:18:24;2.20;99.90
52895;DHT22;38759;53.396;6.722;2023-12-07T09:20:49;2.20;99.90
52895;DHT22;38759;53.396;6.722;2023-12-07T09:23:16;2.20;99.90
52895;DHT22;38759;53.396;6.722;2023-12-07T09:25:42;2.30;99.90
52895;DHT22;38759;53.396;6.722;2023-12-07T09:28:08;2.30;99.90
52895;DHT22;38759;53.396;6.722;2023-12-07T09:30:34;2.30;99.90
52895;DHT22;38759;53.396;6.722;2023-12-07T09:33:00;2.40;99.90
52895;DHT22;38759;53.396;6.722;2023-12-07T09:35:28;2.40;99.90
52895;DHT22;38759;53.396;6.722;2023-12-07T09:37:54;2.40;99.90
52895;DHT22;38759;53.396;6.722;2023-12-07T09:40:23;2.50;99.90
52895;DHT22;38759;53.396;6.722;2023-12-07T09:42:50;2.50;99.90
52895;DHT22;38759;53.396;6.722;2023-12-07T09:45:17;2.70;99.90
52895;DHT22;38759;53.396;6.722;2023-12-07T09:47:47;2.60;99.90
52895;DHT22;38759;53.396;6.722;2023-12-07T09:50:18;2.60;99.90
52895;DHT22;38759;53.396;6.722;2023-12-07T09:52:48;2.70;99.90
52895;DHT22;38759;53.396;6.722;2023-12-07T09:55:19;2.80;99.90
52895;DHT22;38759;53.396;6.722;2023-12-07T09:57:45;2.70;99.90
52895;DHT22;38759;53.396;6.722;2023-12-07T10:00:12;2.80;99.90
52895;DHT22;38759;53.396;6.722;2023-12-07T10:02:41;2.80;99.90
52895;DHT22;38759;53.396;6.722;2023-12-07T10:05:11;3.10;99.90
52895;DHT22;38759;53.396;6.722;2023-12-07T10:07:44;2.90;99.90
52895;DHT22;38759;53.396;6.722;2023-12-07T10:10:10;2.90;99.90
52895;DHT22;38759;53.396;6.722;2023-12-07T10:15:14;3.00;99.90
52895;DHT22;38759;53.396;6.722;2023-12-07T10:18:00;3.10;99.90
52895;DHT22;38759;53.396;6.722;2023-12-07T10:20:27;3.00;99.90
52895;DHT22;38759;53.396;6.722;2023-12-07T10:23:08;3.10;99.90
52895;DHT22;38759;53.396;6.722;2023-12-07T10:25:41;3.10;99.90
52895;DHT22;38759;53.396;6.722;2023-12-07T10:28:08;3.10;99.90
52895;DHT22;38759;53.396;6.722;2023-12-07T10:30:37;3.20;99.90
52895;DHT22;38759;53.396;6.722;2023-12-07T10:33:05;3.30;99.90
52895;DHT22;38759;53.396;6.722;2023-12-07T10:35:32;3.30;99.90
52895;DHT22;38759;53.396;6.722;2023-12-07T10:37:58;3.50;99.90
52895;DHT22;38759;53.396;6.722;2023-12-07T10:40:23;3.50;99.90
52895;DHT22;38759;53.396;6.722;2023-12-07T10:42:53;3.60;99.90
52895;DHT22;38759;53.396;6.722;2023-12-07T10:45:22;3.60;99.90
52895;DHT22;38759;53.396;6.722;2023-12-07T10:47:51;3.80;99.90
52895;DHT22;38759;53.396;6.722;2023-12-07T10:50:23;3.90;99.90
52895;DHT22;38759;53.396;6.722;2023-12-07T10:52:52;3.90;99.90
52895;DHT22;38759;53.396;6.722;2023-12-07T10:55:22;4.00;99.90
52895;DHT22;38759;53.396;6.722;2023-12-07T10:57:55;4.10;99.90
52895;DHT22;38759;53.396;6.722;2023-12-07T11:00:21;4.20;99.90
52895;DHT22;38759;53.396;6.722;2023-12-07T11:02:53;4.20;99.90
52895;DHT22;38759;53.396;6.722;2023-12-07T11:05:19;4.30;99.90
52895;DHT22;38759;53.396;6.722;2023-12-07T11:08:06;4.40;99.90
52895;DHT22;38759;53.396;6.722;2023-12-07T11:10:35;4.50;99.90
52895;DHT22;38759;53.396;6.722;2023-12-07T11:13:26;4.60;99.90
52895;DHT22;38759;53.396;6.722;2023-12-07T11:15:52;4.70;99.90
52895;DHT22;38759;53.396;6.722;2023-12-07T11:18:18;5.00;99.90
52895;DHT22;38759;53.396;6.722;2023-12-07T11:20:45;5.20;99.90
52895;DHT22;38759;53.396;6.722;2023-12-07T11:23:18;5.50;99.90
52895;DHT22;38759;53.396;6.722;2023-12-07T11:25:47;5.70;99.90
52895;DHT22;38759;53.396;6.722;2023-12-07T11:28:14;6.10;99.90
52895;DHT22;38759;53.396;6.722;2023-12-07T11:30:45;6.20;99.90
52895;DHT22;38759;53.396;6.722;2023-12-07T11:33:11;6.50;99.90
52895;DHT22;38759;53.396;6.722;2023-12-07T11:36:09;6.70;99.90
52895;DHT22;38759;53.396;6.722;2023-12-07T11:41:23;7.30;99.90
52895;DHT22;38759;53.396;6.722;2023-12-07T11:43:50;7.40;99.90
52895;DHT22;38759;53.396;6.722;2023-12-07T11:46:19;7.30;99.90
52895;DHT22;38759;53.396;6.722;2023-12-07T11:48:47;7.30;99.90
52895;DHT22;38759;53.396;6.722;2023-12-07T11:51:13;7.30;99.90
52895;DHT22;38759;53.396;6.722;2023-12-07T11:53:39;7.20;99.90
52895;DHT22;38759;53.396;6.722;2023-12-07T11:56:09;6.90;99.90
52895;DHT22;38759;53.396;6.722;2023-12-07T11:58:39;6.90;99.90
52895;DHT22;38759;53.396;6.722;2023-12-07T12:01:05;7.10;99.90
52895;DHT22;38759;53.396;6.722;2023-12-07T12:03:32;7.30;99.90
52895;DHT22;38759;53.396;6.722;2023-12-07T12:05:58;7.30;99.90
52895;DHT22;38759;53.396;6.722;2023-12-07T12:08:24;7.30;99.90
52895;DHT22;38759;53.396;6.722;2023-12-07T12:10:50;7.50;99.90
52895;DHT22;38759;53.396;6.722;2023-12-07T12:13:35;7.60;99.90
52895;DHT22;38759;53.396;6.722;2023-12-07T12:16:02;7.80;99.90
52895;DHT22;38759;53.396;6.722;2023-12-07T12:18:28;7.80;99.90
52895;DHT22;38759;53.396;6.722;2023-12-07T12:20:54;8.00;99.90
52895;DHT22;38759;53.396;6.722;2023-12-07T12:23:20;8.10;99.90
52895;DHT22;38759;53.396;6.722;2023-12-07T12:25:46;7.80;99.90
52895;DHT22;38759;53.396;6.722;2023-12-07T12:28:16;7.80;99.90
52895;DHT22;38759;53.396;6.722;2023-12-07T12:30:44;7.60;99.90
52895;DHT22;38759;53.396;6.722;2023-12-07T12:33:10;7.60;99.90
52895;DHT22;38759;53.396;6.722;2023-12-07T12:35:35;7.60;99.90
52895;DHT22;38759;53.396;6.722;2023-12-07T12:38:01;7.40;99.90
52895;DHT22;38759;53.396;6.722;2023-12-07T12:40:28;7.30;99.90
52895;DHT22;38759;53.396;6.722;2023-12-07T12:42:57;7.30;99.90
52895;DHT22;38759;53.396;6.722;2023-12-07T12:45:23;7.50;99.90
52895;DHT22;38759;53.396;6.722;2023-12-07T12:47:49;7.30;99.90
52895;DHT22;38759;53.396;6.722;2023-12-07T12:50:39;7.40;99.90
52895;DHT22;38759;53.396;6.722;2023-12-07T12:53:07;7.30;99.90
52895;DHT22;38759;53.396;6.722;2023-12-07T12:55:35;7.30;99.90
52895;DHT22;38759;53.396;6.722;2023-12-07T12:58:01;7.50;99.90
52895;DHT22;38759;53.396;6.722;2023-12-07T13:00:30;7.50;99.90
52895;DHT22;38759;53.396;6.722;2023-12-07T13:02:56;7.70;99.90
52895;DHT22;38759;53.396;6.722;2023-12-07T13:05:22;7.50;99.90
52895;DHT22;38759;53.396;6.722;2023-12-07T13:07:48;7.40;99.90
52895;DHT22;38759;53.396;6.722;2023-12-07T13:10:17;7.40;99.90
52895;DHT22;38759;53.396;6.722;2023-12-07T13:12:43;7.30;99.90
52895;DHT22;38759;53.396;6.722;2023-12-07T13:15:12;7.30;99.90
52895;DHT22;38759;53.396;6.722;2023-12-07T13:17:41;7.30;99.90
52895;DHT22;38759;53.396;6.722;2023-12-07T13:20:07;7.10;99.90
52895;DHT22;38759;53.396;6.722;2023-12-07T13:22:40;7.10;99.90
52895;DHT22;38759;53.396;6.722;2023-12-07T13:25:06;7.10;99.90
52895;DHT22;38759;53.396;6.722;2023-12-07T13:27:35;7.00;99.90
52895;DHT22;38759;53.396;6.722;2023-12-07T13:30:02;7.10;99.90
52895;DHT22;38759;53.396;6.722;2023-12-07T13:32:35;7.00;99.90
52895;DHT22;38759;53.396;6.722;2023-12-07T13:35:03;6.90;99.90
52895;DHT22;38759;53.396;6.722;2023-12-07T13:37:30;6.70;99.90
52895;DHT22;38759;53.396;6.722;2023-12-07T13:39:55;6.20;99.90
52895;DHT22;38759;53.396;6.722;2023-12-07T13:42:27;5.60;99.90
52895;DHT22;38759;53.396;6.722;2023-12-07T13:44:57;5.30;99.90
52895;DHT22;38759;53.396;6.722;2023-12-07T13:47:26;4.80;99.90
52895;DHT22;38759;53.396;6.722;2023-12-07T13:49:57;4.20;99.90
52895;DHT22;38759;53.396;6.722;2023-12-07T13:52:24;3.90;99.90
52895;DHT22;38759;53.396;6.722;2023-12-07T13:54:49;3.60;99.90
52895;DHT22;38759;53.396;6.722;2023-12-07T13:57:15;3.30;99.90
52895;DHT22;38759;53.396;6.722;2023-12-07T13:59:41;3.10;99.90
52895;DHT22;38759;53.396;6.722;2023-12-07T14:02:07;2.90;99.90
52895;DHT22;38759;53.396;6.722;2023-12-07T14:04:33;2.80;99.90
52895;DHT22;38759;53.396;6.722;2023-12-07T14:07:13;2.70;99.90
52895;DHT22;38759;53.396;6.722;2023-12-07T14:09:44;2.60;99.90
52895;DHT22;38759;53.396;6.722;2023-12-07T14:12:10;2.50;99.90
52895;DHT22;38759;53.396;6.722;2023-12-07T14:14:39;2.50;99.90
52895;DHT22;38759;53.396;6.722;2023-12-07T14:17:05;2.50;99.90
52895;DHT22;38759;53.396;6.722;2023-12-07T14:19:34;2.40;99.90
52895;DHT22;38759;53.396;6.722;2023-12-07T14:22:00;2.40;99.90
52895;DHT22;38759;53.396;6.722;2023-12-07T14:24:26;2.80;99.90
52895;DHT22;38759;53.396;6.722;2023-12-07T14:26:53;2.70;99.90
52895;DHT22;38759;53.396;6.722;2023-12-07T14:29:19;2.30;99.90
52895;DHT22;38759;53.396;6.722;2023-12-07T14:31:49;2.10;99.90
52895;DHT22;38759;53.396;6.722;2023-12-07T14:34:15;2.10;99.90
52895;DHT22;38759;53.396;6.722;2023-12-07T14:36:41;2.00;99.90
52895;DHT22;38759;53.396;6.722;2023-12-07T14:39:07;1.90;99.90
52895;DHT22;38759;53.396;6.722;2023-12-07T14:41:34;1.80;99.90
52895;DHT22;38759;53.396;6.722;2023-12-07T14:43:59;1.70;99.90
52895;DHT22;38759;53.396;6.722;2023-12-07T14:46:25;1.60;99.90
52895;DHT22;38759;53.396;6.722;2023-12-07T14:48:51;1.70;99.90
52895;DHT22;38759;53.396;6.722;2023-12-07T14:51:20;1.60;99.90
52895;DHT22;38759;53.396;6.722;2023-12-07T14:53:47;1.60;99.90
52895;DHT22;38759;53.396;6.722;2023-12-07T14:56:12;1.60;99.90
52895;DHT22;38759;53.396;6.722;2023-12-07T14:58:38;1.60;99.90
52895;DHT22;38759;53.396;6.722;2023-12-07T15:01:08;1.60;99.90
52895;DHT22;38759;53.396;6.722;2023-12-07T15:03:34;1.60;99.90
52895;DHT22;38759;53.396;6.722;2023-12-07T15:06:01;1.60;99.90
52895;DHT22;38759;53.396;6.722;2023-12-07T15:08:26;1.50;99.90
52895;DHT22;38759;53.396;6.722;2023-12-07T15:10:52;1.50;99.90
52895;DHT22;38759;53.396;6.722;2023-12-07T15:13:20;1.50;99.90
52895;DHT22;38759;53.396;6.722;2023-12-07T15:15:46;1.40;99.90
52895;DHT22;38759;53.396;6.722;2023-12-07T15:18:14;1.40;99.90
52895;DHT22;38759;53.396;6.722;2023-12-07T15:20:40;1.40;99.90
52895;DHT22;38759;53.396;6.722;2023-12-07T15:23:06;1.40;99.90
52895;DHT22;38759;53.396;6.722;2023-12-07T15:25:31;1.40;99.90
52895;DHT22;38759;53.396;6.722;2023-12-07T15:27:57;1.30;99.90
52895;DHT22;38759;53.396;6.722;2023-12-07T15:30:23;1.40;99.90
52895;DHT22;38759;53.396;6.722;2023-12-07T15:32:49;1.40;99.90
52895;DHT22;38759;53.396;6.722;2023-12-07T15:35:16;1.50;99.90
52895;DHT22;38759;53.396;6.722;2023-12-07T15:37:42;1.50;99.90
52895;DHT22;38759;53.396;6.722;2023-12-07T15:42:36;1.50;99.90
52895;DHT22;38759;53.396;6.722;2023-12-07T15:45:07;1.50;99.90
52895;DHT22;38759;53.396;6.722;2023-12-07T15:47:33;1.50;99.90
52895;DHT22;38759;53.396;6.722;2023-12-07T15:50:00;1.50;99.90
52895;DHT22;38759;53.396;6.722;2023-12-07T15:52:25;1.60;99.90
52895;DHT22;38759;53.396;6.722;2023-12-07T15:54:51;1.60;99.90